Time;durP1;ratioP1;P1;durP2;ratioP2;P2;SDS_P1;SDS_P2;PMS_P1;PMS_P2;Temp;Humidity;BMP_temperature;BMP_pressure;BME280_temperature;BME280_humidity;BME280_pressure;Samples;Min_cycle;Max_cycle;Signal;HPM_P1;HPM_P2
2023/09/18 00:00:50;;;;;;;28.20;24.27;;;;;;;17.43;100.00;100595.22;4971178;28;20027;-74
2023/09/18 00:03:19;;;;;;;28.33;25.52;;;;;;;17.31;100.00;100572.91;4970801;28;20564;-77
2023/09/18 00:05:48;;;;;;;27.35;24.48;;;;;;;17.39;100.00;100578.19;4971160;28;20050;-75
2023/09/18 00:08:14;;;;;;;25.40;22.65;;;;;;;17.20;100.00;100553.03;4971214;28;20027;-76
2023/09/18 00:10:40;;;;;;;29.20;26.20;;;;;;;17.40;100.00;100565.97;4971207;28;20031;-75
2023/09/18 00:13:05;;;;;;;27.80;24.83;;;;;;;17.34;100.00;100558.75;4971114;28;20042;-75
2023/09/18 00:15:31;;;;;;;31.10;27.58;;;;;;;17.25;100.00;100541.34;4971610;28;20030;-75
2023/09/18 00:17:56;;;;;;;27.48;23.67;;;;;;;17.36;100.00;100567.25;5016062;23;20035;-75
2023/09/18 00:20:26;;;;;;;26.20;23.23;;;;;;;17.32;100.00;100565.91;4977474;28;20552;-77
2023/09/18 00:22:52;;;;;;;26.27;23.48;;;;;;;17.31;100.00;100557.25;4977169;28;20027;-76
2023/09/18 00:25:17;;;;;;;25.85;23.27;;;;;;;17.28;100.00;100552.31;4977683;28;20037;-75
2023/09/18 00:27:43;;;;;;;26.27;23.48;;;;;;;17.26;100.00;100549.03;4977345;28;20471;-75
2023/09/18 00:30:09;;;;;;;28.60;25.70;;;;;;;17.18;100.00;100523.66;4977404;28;20023;-74
2023/09/18 00:32:34;;;;;;;27.52;24.63;;;;;;;17.28;100.00;100533.22;4977179;28;20054;-74
2023/09/18 00:34:59;;;;;;;27.98;25.02;;;;;;;17.18;100.00;100513.22;4976961;28;20430;-75
2023/09/18 00:37:24;;;;;;;28.52;25.52;;;;;;;17.26;100.00;100522.13;4977241;28;20042;-75
2023/09/18 00:39:52;;;;;;;27.45;24.55;;;;;;;17.24;100.00;100518.84;4977327;28;20031;-77
2023/09/18 00:42:18;;;;;;;28.38;25.40;;;;;;;17.14;100.00;100495.41;4977420;28;20023;-76
2023/09/18 00:44:44;;;;;;;30.75;25.65;;;;;;;17.25;100.00;100505.63;4977247;28;20033;-75
2023/09/18 00:47:10;;;;;;;27.80;24.63;;;;;;;17.13;100.00;100485.94;4976979;28;20049;-75
2023/09/18 00:49:38;;;;;;;28.83;24.05;;;;;;;17.21;100.00;100493.88;4977043;28;20382;-75
2023/09/18 00:52:04;;;;;;;25.80;23.08;;;;;;;17.18;100.00;100494.97;4977178;28;20527;-74
2023/09/18 00:54:31;;;;;;;24.40;21.90;;;;;;;17.20;100.00;100493.00;4959228;28;20051;-75
2023/09/18 00:56:57;;;;;;;26.73;23.95;;;;;;;17.23;100.00;100486.69;4977255;28;20030;-75
2023/09/18 00:59:23;;;;;;;24.90;22.20;;;;;;;17.12;100.00;100485.13;4976889;28;20030;-76
2023/09/18 01:01:50;;;;;;;28.33;24.35;;;;;;;17.13;100.00;100478.13;4976910;28;20031;-75
2023/09/18 01:04:17;;;;;;;29.17;25.70;;;;;;;17.23;100.00;100483.28;4977110;28;20062;-75
2023/09/18 01:06:42;;;;;;;31.45;26.88;;;;;;;17.19;100.00;100470.50;4976790;28;20049;-75
2023/09/18 01:09:12;;;;;;;31.02;27.83;;;;;;;17.29;100.00;100472.22;4976734;28;20122;-75
2023/09/18 01:11:46;;;;;;;32.33;29.02;;;;;;;17.34;100.00;100459.56;4976889;28;20030;-75
2023/09/18 01:14:27;;;;;;;31.20;27.90;;;;;;;17.13;100.00;100402.47;4976653;28;20420;-75
2023/09/18 01:16:55;;;;;;;30.92;27.75;;;;;;;17.38;100.00;100446.06;4976544;28;20083;-75
2023/09/18 01:19:41;;;;;;;31.50;28.13;;;;;;;17.42;100.00;100436.16;4976447;28;20082;-75
2023/09/18 01:22:07;;;;;;;30.10;26.90;;;;;;;17.44;100.00;100436.81;4976971;28;20395;-77
2023/09/18 01:24:37;;;;;;;29.90;27.00;;;;;;;17.42;100.00;100418.69;4976581;28;20037;-77
2023/09/18 01:27:06;;;;;;;30.67;27.45;;;;;;;17.46;100.00;100421.81;4975898;28;20027;-75
2023/09/18 01:29:31;;;;;;;31.55;27.50;;;;;;;17.53;100.00;100428.09;4972903;28;20038;-75
2023/09/18 01:31:58;;;;;;;32.67;27.33;;;;;;;17.54;100.00;100431.50;4973492;28;20034;-75
2023/09/18 01:34:28;;;;;;;30.27;25.70;;;;;;;17.55;100.00;100433.16;4973254;28;20042;-76
2023/09/18 01:36:57;;;;;;;28.93;25.93;;;;;;;17.53;100.00;100427.25;4973575;28;20023;-75
2023/09/18 01:39:23;;;;;;;26.67;23.85;;;;;;;17.57;100.00;100431.19;4955985;28;20030;-75
2023/09/18 01:41:50;;;;;;;27.10;24.42;;;;;;;17.58;100.00;100436.25;4973269;28;20399;-78
2023/09/18 01:44:15;;;;;;;27.40;24.25;;;;;;;17.60;100.00;100438.72;4973408;28;20377;-78
2023/09/18 01:46:42;;;;;;;26.80;23.98;;;;;;;17.59;100.00;100444.91;4973035;28;20096;-75
2023/09/18 01:49:07;;;;;;;26.35;23.48;;;;;;;17.57;100.00;100445.06;4973326;28;20038;-77
2023/09/18 01:51:33;;;;;;;25.85;22.50;;;;;;;17.56;100.00;100446.03;4973304;28;20434;-78
2023/09/18 01:53:58;;;;;;;25.25;22.35;;;;;;;17.58;100.00;100443.28;4973108;28;20027;-77
2023/09/18 01:56:23;;;;;;;26.00;22.38;;;;;;;17.47;100.00;100420.84;4973156;28;20046;-75
2023/09/18 01:58:49;;;;;;;24.63;21.80;;;;;;;17.58;100.00;100443.28;4973056;28;20042;-77
2023/09/18 02:01:14;;;;;;;24.63;21.80;;;;;;;17.57;100.00;100441.66;4973156;28;20027;-76
2023/09/18 02:03:41;;;;;;;24.65;20.95;;;;;;;17.56;100.00;100433.00;4972736;28;20027;-75
2023/09/18 02:06:06;;;;;;;23.55;21.05;;;;;;;17.55;100.00;100433.97;4973036;28;20026;-75
2023/09/18 02:08:31;;;;;;;22.05;19.42;;;;;;;17.58;100.00;100433.66;4972915;28;20030;-75
2023/09/18 02:10:57;;;;;;;23.13;19.60;;;;;;;17.59;100.00;100435.28;4972735;28;20111;-73
2023/09/18 02:13:22;;;;;;;21.98;16.65;;;;;;;17.56;100.00;100419.13;4972864;28;20073;-75
2023/09/18 02:15:47;;;;;;;19.23;17.20;;;;;;;17.66;100.00;100425.06;4972909;28;20081;-75
2023/09/18 02:18:13;;;;;;;21.23;17.13;;;;;;;17.69;100.00;100420.38;4972673;28;20043;-76
2023/09/18 02:20:42;;;;;;;19.60;17.13;;;;;;;17.71;100.00;100415.84;4972706;28;20081;-75
2023/09/18 02:23:07;;;;;;;18.92;16.15;;;;;;;17.58;100.00;100391.88;4972652;28;20015;-75
2023/09/18 02:25:32;;;;;;;18.58;15.70;;;;;;;17.71;100.00;100401.97;4972527;28;20121;-75
2023/09/18 02:27:58;;;;;;;17.33;15.35;;;;;;;17.73;100.00;100394.81;4972502;28;20025;-75
2023/09/18 02:30:23;;;;;;;17.55;14.35;;;;;;;17.78;100.00;100392.53;4972490;28;20031;-76
2023/09/18 02:32:49;;;;;;;17.13;14.60;;;;;;;17.81;100.00;100389.63;4972746;28;20106;-75
2023/09/18 02:35:15;;;;;;;15.30;13.70;;;;;;;17.82;100.00;100382.63;4972340;28;20086;-75
2023/09/18 02:37:40;;;;;;;16.70;14.38;;;;;;;17.70;100.00;100359.38;4972277;28;20508;-76
2023/09/18 02:40:07;;;;;;;15.40;13.85;;;;;;;17.74;100.00;100357.25;4971617;28;20026;-76
2023/09/18 02:42:33;;;;;;;16.58;14.13;;;;;;;17.78;100.00;100351.56;4972524;28;20030;-75
2023/09/18 02:44:58;;;;;;;17.55;13.77;;;;;;;17.74;100.00;100346.81;4972442;28;20416;-77
2023/09/18 02:47:23;;;;;;;15.75;13.07;;;;;;;17.74;100.00;100346.81;4972389;28;20507;-76
2023/09/18 02:49:49;;;;;;;16.58;13.25;;;;;;;17.75;100.00;100349.28;4972223;28;20030;-75
2023/09/18 02:52:14;;;;;;;16.20;12.98;;;;;;;17.69;100.00;100328.13;4972666;28;20073;-77
2023/09/18 02:54:39;;;;;;;18.30;12.90;;;;;;;17.73;100.00;100329.50;4972220;28;20023;-78
2023/09/18 02:57:05;;;;;;;17.20;12.57;;;;;;;17.78;100.00;100327.25;4972361;28;20061;-77
2023/09/18 02:59:31;;;;;;;16.02;12.68;;;;;;;17.76;100.00;100326.59;4972121;28;20030;-76
2023/09/18 03:01:56;;;;;;;13.90;12.35;;;;;;;17.82;100.00;100333.00;4972327;28;20034;-75
2023/09/18 03:04:24;;;;;;;13.52;11.55;;;;;;;17.74;100.00;100325.94;4972032;28;20027;-78
2023/09/18 03:06:49;;;;;;;13.77;11.45;;;;;;;17.66;100.00;100300.53;4978202;22;20050;-77
2023/09/18 03:09:16;;;;;;;13.82;11.25;;;;;;;17.71;100.00;100316.63;4972279;28;20041;-78
2023/09/18 03:11:43;;;;;;;16.33;12.40;;;;;;;17.76;100.00;100327.41;4971978;28;20074;-76
2023/09/18 03:14:08;;;;;;;15.90;11.48;;;;;;;17.76;100.00;100326.59;4971881;28;20074;-78
2023/09/18 03:16:34;;;;;;;15.40;12.00;;;;;;;17.70;100.00;100312.38;4999989;22;20512;-78
2023/09/18 03:19:01;;;;;;;15.00;11.85;;;;;;;17.55;100.00;100289.56;4991162;28;20084;-75
2023/09/18 03:21:26;;;;;;;13.10;10.98;;;;;;;17.68;100.00;100309.03;4990997;28;20041;-77
2023/09/18 03:23:51;;;;;;;15.27;10.93;;;;;;;17.65;100.00;100304.13;4991235;28;20116;-75
2023/09/18 03:26:16;;;;;;;17.80;12.45;;;;;;;17.67;100.00;100310.00;4991490;28;20050;-78
2023/09/18 03:28:42;;;;;;;15.35;11.85;;;;;;;17.63;100.00;100308.69;4991277;28;20026;-76
2023/09/18 03:31:07;;;;;;;16.65;11.68;;;;;;;17.60;100.00;100293.34;4991097;28;20030;-76
2023/09/18 03:33:32;;;;;;;16.65;11.55;;;;;;;17.64;100.00;100291.25;4991053;28;20045;-75
2023/09/18 03:35:58;;;;;;;17.42;12.63;;;;;;;17.57;100.00;100280.59;4990618;28;20037;-75
2023/09/18 03:38:24;;;;;;;19.88;12.15;;;;;;;17.68;100.00;100308.22;4974442;28;20088;-75
2023/09/18 03:40:50;;;;;;;15.43;12.52;;;;;;;17.72;100.00;100309.59;4990982;28;20490;-75
2023/09/18 03:43:15;;;;;;;16.27;11.70;;;;;;;17.71;100.00;100305.34;4991192;28;20027;-75
2023/09/18 03:45:41;;;;;;;18.55;12.15;;;;;;;17.71;100.00;100303.56;4990907;28;20041;-77
2023/09/18 03:48:06;;;;;;;16.05;11.70;;;;;;;17.73;100.00;100316.47;4990632;28;20026;-76
2023/09/18 03:50:32;;;;;;;17.23;12.05;;;;;;;17.74;100.00;100324.13;4990077;28;20087;-75
2023/09/18 03:52:57;;;;;;;15.32;11.43;;;;;;;17.71;100.00;100314.00;4990824;28;20034;-76
2023/09/18 03:55:23;;;;;;;15.00;10.98;;;;;;;17.78;100.00;100335.06;4990720;28;20038;-75
2023/09/18 04:00:13;;;;;;;18.10;11.13;;;;;;;17.75;100.00;100315.31;5021720;22;20055;-76
2023/09/18 04:02:38;;;;;;;15.75;10.32;;;;;;;17.89;100.00;100313.09;4971124;28;20042;-76
2023/09/18 04:05:04;;;;;;;16.48;10.27;;;;;;;17.85;100.00;100283.03;4971142;28;20084;-76
2023/09/18 04:07:31;;;;;;;15.88;10.25;;;;;;;18.00;100.00;100292.75;4953105;28;20043;-77
2023/09/18 04:09:58;;;;;;;14.73;10.80;;;;;;;18.01;100.00;100302.22;4971374;28;20172;-77
2023/09/18 04:12:24;;;;;;;18.70;10.60;;;;;;;17.88;100.00;100308.84;4971131;28;20038;-78
2023/09/18 04:14:49;;;;;;;15.50;10.27;;;;;;;18.00;100.00;100324.09;4970944;28;20061;-77
2023/09/18 04:17:15;;;;;;;19.75;11.40;;;;;;;18.09;100.00;100342.41;4953686;28;20160;-77
2023/09/18 04:19:40;;;;;;;13.40;9.82;;;;;;;18.10;100.00;100344.06;4970991;28;20027;-76
2023/09/18 04:22:06;;;;;;;15.73;10.70;;;;;;;18.11;100.00;100337.88;4970935;28;20026;-76
2023/09/18 04:24:31;;;;;;;14.80;10.27;;;;;;;18.14;100.00;100340.16;4970886;28;20038;-76
2023/09/18 04:26:56;;;;;;;15.00;10.90;;;;;;;18.15;100.00;100326.94;4953570;28;20034;-77
2023/09/18 04:29:22;;;;;;;15.25;11.32;;;;;;;18.00;100.00;100297.97;4971127;28;20033;-78
2023/09/18 04:31:48;;;;;;;14.32;9.68;;;;;;;18.17;100.00;100321.53;4970627;28;20058;-78
2023/09/18 04:34:13;;;;;;;14.98;10.85;;;;;;;17.99;100.00;100280.66;4970913;28;20061;-75
2023/09/18 04:36:39;;;;;;;14.82;9.57;;;;;;;17.98;100.00;100273.78;4970727;28;20542;-74
2023/09/18 04:39:05;;;;;;;17.58;9.82;;;;;;;18.17;100.00;100292.78;4970565;28;20039;-75
2023/09/18 04:41:31;;;;;;;14.77;9.48;;;;;;;18.12;100.00;100295.91;4971100;28;20418;-76
2023/09/18 04:43:56;;;;;;;14.55;10.45;;;;;;;18.03;100.00;100281.16;4970789;28;20084;-75
2023/09/18 04:46:21;;;;;;;16.85;9.63;;;;;;;18.16;100.00;100296.38;4970611;28;20027;-75
2023/09/18 04:48:47;;;;;;;16.67;10.35;;;;;;;18.15;100.00;100258.97;4970786;28;20034;-76
2023/09/18 04:51:12;;;;;;;14.50;10.27;;;;;;;18.08;100.00;100241.47;4970713;28;20034;-76
2023/09/18 04:53:38;;;;;;;15.45;10.40;;;;;;;18.10;100.00;100247.38;4970246;28;20042;-74
2023/09/18 04:56:03;;;;;;;12.15;9.77;;;;;;;18.08;100.00;100241.47;4970476;28;20534;-75
2023/09/18 04:58:29;;;;;;;13.02;9.90;;;;;;;18.03;100.00;100229.72;4970614;28;20046;-75
2023/09/18 05:00:55;;;;;;;11.48;9.48;;;;;;;18.01;100.00;100236.91;4970636;28;20023;-76
2023/09/18 05:03:21;;;;;;;13.93;10.05;;;;;;;17.97;100.00;100240.78;4971820;28;20146;-74
2023/09/18 05:05:46;;;;;;;12.05;9.60;;;;;;;17.94;100.00;100235.91;4973698;28;20031;-75
2023/09/18 05:08:11;;;;;;;15.18;11.07;;;;;;;17.89;100.00;100238.16;4973881;28;20023;-75
2023/09/18 05:10:37;;;;;;;14.18;10.13;;;;;;;17.63;100.00;100196.44;5040484;28;20085;-75
2023/09/18 05:13:03;;;;;;;15.10;9.95;;;;;;;17.58;100.00;100187.41;4973808;28;20477;-76
2023/09/18 05:15:29;;;;;;;13.63;10.05;;;;;;;17.78;100.00;100234.03;4973695;28;20027;-77
2023/09/18 05:17:57;;;;;;;15.93;10.50;;;;;;;17.74;100.00;100226.69;4973680;28;20388;-76
2023/09/18 05:20:24;;;;;;;15.27;11.52;;;;;;;17.52;100.00;100194.09;4973635;28;20038;-79
2023/09/18 05:22:53;;;;;;;15.23;11.02;;;;;;;17.65;100.00;100230.22;4973352;28;20053;-75
2023/09/18 05:25:21;;;;;;;16.60;12.57;;;;;;;17.63;100.00;100230.38;4973489;28;20076;-77
2023/09/18 05:27:48;;;;;;;19.38;12.50;;;;;;;17.70;100.00;100251.50;4973495;28;20027;-77
2023/09/18 05:30:21;;;;;;;14.98;12.15;;;;;;;17.71;100.00;100260.97;4973651;28;20178;-76
2023/09/18 05:32:47;;;;;;;20.38;12.75;;;;;;;17.66;100.00;100252.72;4956074;28;20055;-77
2023/09/18 05:35:13;;;;;;;16.67;12.13;;;;;;;17.68;100.00;100259.44;4973445;28;20027;-78
2023/09/18 05:37:39;;;;;;;15.40;11.85;;;;;;;17.61;100.00;100250.59;4973105;28;20084;-78
2023/09/18 05:40:09;;;;;;;14.35;11.40;;;;;;;17.64;100.00;100250.28;4973060;28;20369;-77
2023/09/18 05:42:36;;;;;;;11.40;10.00;;;;;;;17.63;100.00;100238.19;4956545;28;20031;-78
2023/09/18 05:45:01;;;;;;;13.82;9.68;;;;;;;17.66;100.00;100256.16;4973057;28;20543;-78
2023/09/18 05:47:26;;;;;;;11.73;7.65;;;;;;;17.66;100.00;100256.16;4973343;28;20056;-76
2023/09/18 05:49:51;;;;;;;12.85;7.50;;;;;;;17.63;100.00;100240.81;4973188;28;20023;-76
2023/09/18 05:52:17;;;;;;;9.80;6.38;;;;;;;17.65;100.00;100244.06;4973135;28;20353;-75
2023/09/18 05:54:42;;;;;;;9.35;6.53;;;;;;;17.64;100.00;100245.06;4972892;28;20069;-76
2023/09/18 05:57:08;;;;;;;7.50;4.70;;;;;;;17.80;100.00;100275.69;4972931;28;20038;-76
2023/09/18 05:59:33;;;;;;;10.25;5.90;;;;;;;17.80;100.00;100260.03;4972875;28;20055;-75
2023/09/18 06:01:58;;;;;;;7.70;5.45;;;;;;;17.87;100.00;100279.28;4972955;28;20054;-76
2023/09/18 06:04:24;;;;;;;8.32;4.70;;;;;;;17.89;100.00;100277.34;4956743;28;20069;-75
2023/09/18 06:06:51;;;;;;;7.32;4.63;;;;;;;17.93;100.00;100275.25;4973282;28;20129;-75
2023/09/18 06:09:16;;;;;;;9.55;4.70;;;;;;;17.92;100.00;100278.84;4972677;28;20023;-76
2023/09/18 06:11:41;;;;;;;7.60;4.13;;;;;;;17.94;100.00;100287.34;4972725;28;20092;-76
2023/09/18 06:14:07;;;;;;;6.82;4.05;;;;;;;17.93;100.00;100289.13;4960571;28;20062;-74
2023/09/18 06:16:32;;;;;;;6.35;3.40;;;;;;;17.94;100.00;100305.63;4954062;29;20031;-74
2023/09/18 06:19:00;;;;;;;4.85;3.28;;;;;;;17.85;100.00;100283.84;4953772;29;20089;-75
2023/09/18 06:21:25;;;;;;;6.43;3.67;;;;;;;17.91;100.00;100291.09;4953289;29;20452;-74
2023/09/18 06:23:51;;;;;;;6.40;3.42;;;;;;;17.91;100.00;100298.09;4962411;28;20059;-78
2023/09/18 06:26:17;;;;;;;5.90;3.25;;;;;;;17.87;100.00;100294.16;4970678;28;20034;-76
2023/09/18 06:28:42;;;;;;;4.93;3.17;;;;;;;17.81;100.00;100285.16;4972533;28;20391;-77
2023/09/18 06:31:08;;;;;;;6.38;3.30;;;;;;;17.87;100.00;100294.97;4972544;28;20026;-77
2023/09/18 06:33:33;;;;;;;6.03;2.80;;;;;;;17.79;100.00;100287.09;4972640;28;20170;-75
2023/09/18 06:35:59;;;;;;;5.72;2.95;;;;;;;17.76;100.00;100290.03;4972462;28;20396;-75
2023/09/18 06:38:24;;;;;;;6.95;2.95;;;;;;;17.89;100.00;100311.28;4972126;28;20030;-78
2023/09/18 06:40:50;;;;;;;3.95;2.38;;;;;;;17.90;100.00;100309.53;4972665;28;20034;-76
2023/09/18 06:43:15;;;;;;;4.18;2.47;;;;;;;17.88;100.00;100309.66;4972081;28;20027;-75
2023/09/18 06:45:41;;;;;;;6.20;2.60;;;;;;;17.80;100.00;100300.97;4966128;28;20445;-78
2023/09/18 06:48:06;;;;;;;4.50;2.70;;;;;;;18.00;100.00;100321.50;4960094;28;20098;-76
2023/09/18 06:50:31;;;;;;;5.45;2.33;;;;;;;17.98;100.00;100317.38;4944557;28;20023;-75
2023/09/18 06:52:57;;;;;;;6.95;2.50;;;;;;;18.14;100.00;100335.75;4961654;28;20030;-76
2023/09/18 06:55:22;;;;;;;3.67;2.40;;;;;;;18.22;100.00;100334.97;4960188;28;20045;-77
2023/09/18 06:57:48;;;;;;;5.70;2.20;;;;;;;18.21;100.00;100322.88;4960080;28;20504;-78
2023/09/18 07:00:20;;;;;;;5.35;2.30;;;;;;;18.42;100.00;100346.78;4961113;28;20111;-76
2023/09/18 07:02:46;;;;;;;5.43;2.55;;;;;;;18.49;100.00;100333.91;4959804;28;20059;-77
2023/09/18 07:05:12;;;;;;;5.78;2.45;;;;;;;18.57;100.00;100353.03;4952799;29;20064;-76
2023/09/18 07:07:37;;;;;;;5.65;2.50;;;;;;;18.61;100.00;100356.16;4952518;29;20130;-78
2023/09/18 07:10:03;;;;;;;3.63;2.15;;;;;;;18.54;100.00;100326.38;4935816;28;20023;-76
2023/09/18 07:12:28;;;;;;;6.15;2.65;;;;;;;18.59;100.00;100339.81;4952454;28;20028;-75
2023/09/18 07:14:53;;;;;;;5.00;2.22;;;;;;;18.60;100.00;100338.84;4952531;28;20057;-77
2023/09/18 07:17:19;;;;;;;5.47;2.40;;;;;;;18.61;100.00;100349.13;4952895;28;20118;-77
2023/09/18 07:19:44;;;;;;;3.83;2.25;;;;;;;18.52;100.00;100326.56;4952581;28;20162;-77
2023/09/18 07:22:09;;;;;;;5.95;2.65;;;;;;;18.65;100.00;100338.38;4952428;28;20173;-78
2023/09/18 07:24:35;;;;;;;5.38;2.13;;;;;;;18.69;100.00;100348.38;4952680;28;20485;-77
2023/09/18 07:27:00;;;;;;;4.80;2.50;;;;;;;18.72;100.00;100360.31;4951586;28;20479;-78
2023/09/18 07:29:25;;;;;;;5.18;2.40;;;;;;;18.60;100.00;100341.44;4935072;28;20047;-78
2023/09/18 07:31:51;;;;;;;5.45;2.28;;;;;;;18.67;100.00;100352.09;4952601;28;20066;-77
2023/09/18 07:34:17;;;;;;;5.55;2.42;;;;;;;18.67;100.00;100349.47;4952493;28;20062;-76
2023/09/18 07:36:44;;;;;;;5.55;2.55;;;;;;;18.72;100.00;100357.69;4952183;28;20039;-77
2023/09/18 07:39:10;;;;;;;5.10;2.58;;;;;;;18.74;100.00;100353.09;4952219;28;20122;-77
2023/09/18 07:41:35;;;;;;;5.05;2.10;;;;;;;18.82;100.00;100353.94;4952248;28;20058;-79
2023/09/18 07:44:01;;;;;;;4.72;2.35;;;;;;;18.89;100.00;100369.81;4952424;28;20066;-76
2023/09/18 07:46:38;;;;;;;4.53;1.98;;;;;;;18.95;100.00;100373.56;4978376;23;20498;-78
2023/09/18 07:49:22;;;;;;;5.35;2.40;;;;;;;19.00;100.00;100368.69;4971220;28;20403;-79
2023/09/18 07:51:48;;;;;;;5.28;2.20;;;;;;;18.42;100.00;100281.44;4971602;28;20120;-77
2023/09/18 07:54:32;;;;;;;6.43;2.17;;;;;;;19.00;100.00;100369.50;4970851;28;20491;-78
2023/09/18 07:57:09;;;;;;;4.10;2.20;;;;;;;18.57;100.00;100285.03;4971469;28;20022;-79
2023/09/18 07:59:44;;;;;;;5.53;2.08;;;;;;;18.68;100.00;100296.19;4971626;28;20027;-78
2023/09/18 08:02:12;;;;;;;4.82;2.13;;;;;;;18.42;100.00;100238.78;4954090;28;20027;-79
2023/09/18 08:04:40;;;;;;;4.35;2.65;;;;;;;18.48;100.00;100240.75;4971495;28;20476;-79
2023/09/18 08:07:19;;;;;;;4.82;2.33;;;;;;;18.43;100.00;100217.72;4971149;28;20030;-80
2023/09/18 08:09:44;;;;;;;5.30;2.17;;;;;;;19.02;100.00;100328.28;4971072;28;20523;-79
2023/09/18 08:12:13;;;;;;;5.47;2.30;;;;;;;19.28;100.00;100374.44;4971238;28;20050;-80
2023/09/18 08:14:38;;;;;;;7.13;2.60;;;;;;;19.32;100.00;100378.34;4970988;28;20019;-77
2023/09/18 08:17:07;;;;;;;4.68;2.38;;;;;;;19.32;100.00;100378.34;4971067;28;20495;-78
2023/09/18 08:19:32;;;;;;;6.65;2.38;;;;;;;19.24;100.00;100360.84;4947421;28;20483;-78
2023/09/18 08:22:01;;;;;;;5.30;2.28;;;;;;;19.36;100.00;100382.25;4971540;28;20061;-75
2023/09/18 08:24:27;;;;;;;5.35;2.50;;;;;;;19.27;100.00;100378.00;4971112;28;20027;-78
2023/09/18 08:26:53;;;;;;;6.65;2.80;;;;;;;19.39;100.00;100381.94;4971170;28;20076;-79
2023/09/18 08:29:19;;;;;;;10.00;2.60;;;;;;;19.25;100.00;100357.22;4970861;28;20061;-77
2023/09/18 08:31:44;;;;;;;6.78;2.30;;;;;;;19.56;100.00;100393.25;4970989;28;20024;-78
2023/09/18 08:34:10;;;;;;;4.80;2.10;;;;;;;19.61;100.00;100396.19;4970755;28;20383;-77
2023/09/18 08:36:35;;;;;;;3.05;2.08;;;;;;;19.64;100.00;100399.28;4971231;28;20060;-77
2023/09/18 08:39:00;;;;;;;6.88;2.05;;;;;;;19.66;100.00;100409.59;4974574;28;20467;-78
2023/09/18 08:41:30;;;;;;;5.18;2.03;;;;;;;19.61;100.00;100404.88;4974223;28;20030;-77
2023/09/18 08:44:00;;;;;;;7.80;2.97;;;;;;;19.42;100.00;100392.09;4974172;28;20445;-78
2023/09/18 08:46:26;;;;;;;5.53;2.38;;;;;;;19.49;100.00;100430.56;4956931;28;20047;-77
2023/09/18 08:48:52;;;;;;;3.90;2.15;;;;;;;19.49;100.00;100427.13;4974147;28;20037;-79
2023/09/18 08:51:18;;;;;;;5.18;2.50;;;;;;;19.50;100.00;100418.28;4974029;28;20046;-77
2023/09/18 08:53:44;;;;;;;6.15;2.55;;;;;;;19.60;100.00;100423.38;4974207;28;20106;-79
2023/09/18 08:56:12;;;;;;;5.10;2.10;;;;;;;19.51;100.00;100393.72;4974045;28;20440;-78
2023/09/18 08:58:40;;;;;;;4.05;2.40;;;;;;;19.70;100.00;100410.91;4973910;28;20023;-78
2023/09/18 09:01:09;;;;;;;4.50;2.22;;;;;;;19.59;100.00;100395.56;4974288;28;20023;-80
2023/09/18 09:03:42;;;;;;;4.00;2.20;;;;;;;19.67;100.00;100400.78;4973937;28;20460;-81
2023/09/18 09:06:09;;;;;;;3.47;2.58;;;;;;;19.61;100.00;100390.97;4974321;28;20038;-82
2023/09/18 09:08:36;;;;;;;3.78;2.10;;;;;;;19.73;100.00;100411.41;4973890;28;20031;-81
2023/09/18 09:11:02;;;;;;;4.05;2.15;;;;;;;19.55;100.00;100384.53;4973880;28;20185;-81
2023/09/18 09:13:28;;;;;;;3.63;1.92;;;;;;;19.94;100.00;100413.50;4974013;28;20133;-79
2023/09/18 09:15:58;;;;;;;6.63;2.17;;;;;;;19.99;100.00;100407.75;4973843;28;20144;-82
2023/09/18 09:18:25;;;;;;;5.53;1.98;;;;;;;20.04;100.00;100419.34;4973912;28;20027;-79
2023/09/18 09:20:59;;;;;;;3.78;1.73;;;;;;;20.12;100.00;100418.53;4956456;28;20062;-78
2023/09/18 09:23:30;;;;;;;4.93;2.17;;;;;;;19.99;100.00;100415.63;4973879;28;20403;-80
2023/09/18 09:29:18;;;;;;;6.40;2.08;;;;;;;20.28;100.00;100443.88;4973330;28;20035;-81
2023/09/18 09:31:44;;;;;;;5.40;2.47;;;;;;;20.32;100.00;100424.19;4973616;28;20110;-79
2023/09/18 09:34:09;;;;;;;5.68;2.42;;;;;;;20.55;100.00;100447.91;4941358;28;20035;-76
2023/09/18 09:36:51;;;;;;;4.35;2.15;;;;;;;20.66;100.00;100444.94;4954688;29;20084;-78
2023/09/18 09:41:52;;;;;;;8.23;2.20;;;;;;;21.17;100.00;100437.41;5008981;23;20570;-76
2023/09/18 09:44:19;;;;;;;5.43;2.72;;;;;;;21.39;100.00;100457.63;4973227;28;20042;-77
2023/09/18 09:46:51;;;;;;;5.30;2.47;;;;;;;21.50;100.00;100456.38;4973305;28;20027;-79
2023/09/18 09:49:19;;;;;;;5.47;2.58;;;;;;;21.41;100.00;100452.19;4972752;28;20026;-80
2023/09/18 09:51:45;;;;;;;4.95;2.72;;;;;;;21.35;100.00;100440.59;4973349;28;20485;-77
2023/09/18 09:54:12;;;;;;;6.15;2.50;;;;;;;21.39;100.00;100430.53;4955307;28;20091;-77
2023/09/18 09:56:44;;;;;;;2.95;2.20;;;;;;;21.46;100.00;100441.97;4973214;28;20061;-79
2023/09/18 09:59:11;;;;;;;9.02;2.67;;;;;;;21.47;99.98;100441.81;4973248;28;20066;-79
2023/09/18 10:01:38;;;;;;;5.90;2.60;;;;;;;21.56;98.45;100444.38;4973134;28;20023;-78
2023/09/18 10:04:17;;;;;;;4.15;2.42;;;;;;;21.59;100.00;100449.25;4972978;28;20031;-77
2023/09/18 10:06:53;;;;;;;6.22;2.70;;;;;;;21.64;98.56;100460.06;4972798;28;20045;-77
2023/09/18 10:12:34;;;;;;;6.97;2.85;;;;;;;21.35;99.13;100411.69;4974094;28;20102;-78
2023/09/18 10:15:03;;;;;;;6.18;2.67;;;;;;;20.41;96.47;100312.22;4972788;28;20035;-79
2023/09/18 10:17:52;;;;;;;7.03;2.78;;;;;;;20.76;99.00;100410.59;4931461;29;20453;-80
2023/09/18 10:20:32;;;;;;;6.30;2.55;;;;;;;21.11;98.39;100431.03;4932261;29;20046;-80
2023/09/18 10:23:43;;;;;;;4.97;2.45;;;;;;;21.60;99.17;100479.78;4933345;29;20031;-79
2023/09/18 10:26:41;;;;;;;5.05;2.15;;;;;;;21.19;98.02;100380.28;5018364;22;20054;-78
2023/09/18 10:29:11;;;;;;;8.52;2.90;;;;;;;21.52;97.77;100406.28;4972825;28;20098;-79
2023/09/18 10:31:40;;;;;;;5.22;2.30;;;;;;;21.85;96.95;100467.28;4971492;28;20018;-79
2023/09/18 10:34:07;;;;;;;6.15;2.60;;;;;;;21.79;95.82;100462.72;4979866;28;20070;-77
2023/09/18 10:36:34;;;;;;;6.07;2.65;;;;;;;21.84;95.48;100465.63;4964423;28;20031;-76
2023/09/18 10:39:39;;;;;;;6.88;2.72;;;;;;;22.08;95.64;100467.22;4919473;29;20036;-79
2023/09/18 10:45:12;;;;;;;6.72;2.92;;;;;;;21.91;93.37;100411.31;4932018;29;20500;-77
2023/09/18 10:47:45;;;;;;;10.75;3.08;;;;;;;22.21;92.76;100460.34;4931920;29;20459;-76
2023/09/18 10:50:10;;;;;;;7.10;2.97;;;;;;;22.13;90.49;100468.34;4931771;29;20565;-74
2023/09/18 10:52:43;;;;;;;7.53;2.80;;;;;;;22.10;92.08;100467.88;4931957;29;20066;-76
2023/09/18 10:55:12;;;;;;;7.47;2.90;;;;;;;22.14;90.30;100459.44;4931444;29;20039;-78
2023/09/18 10:57:38;;;;;;;9.27;3.65;;;;;;;22.20;89.92;100465.78;4931800;29;20051;-77
2023/09/18 11:00:13;;;;;;;5.63;3.20;;;;;;;22.15;89.97;100457.63;4930914;29;20069;-77
2023/09/18 11:02:40;;;;;;;9.38;3.22;;;;;;;22.01;89.78;100462.66;4931614;29;20035;-78
2023/09/18 11:05:06;;;;;;;6.88;3.45;;;;;;;21.76;89.64;100451.56;4931626;29;20047;-77
2023/09/18 11:07:31;;;;;;;8.18;3.20;;;;;;;21.60;nan;100456.13;4931583;29;20028;-75
2023/09/18 11:09:57;;;;;;;5.72;3.45;;;;;;;21.52;92.30;100464.91;4941421;29;20395;-75
2023/09/18 11:12:42;;;;;;;6.45;3.33;;;;;;;21.49;92.35;100470.50;4952858;28;20035;-79
2023/09/18 11:15:07;;;;;;;6.60;3.45;;;;;;;21.60;91.72;100466.66;4952616;29;20241;-78
2023/09/18 11:17:38;;;;;;;6.00;3.42;;;;;;;21.89;91.78;100466.72;4952626;29;20161;-78
2023/09/18 11:20:09;;;;;;;6.00;3.38;;;;;;;22.07;90.61;100452.47;4952656;29;20411;-78
2023/09/18 11:22:35;;;;;;;;;;;;;;;22.35;92.94;100465.81;4953077;29;20554;-78
2023/09/18 11:25:34;;;;;;;7.43;3.40;;;;;;;22.41;90.72;100457.16;4952363;29;19910;-76